Time;durP1;ratioP1;P1;durP2;ratioP2;P2;SDS_P1;SDS_P2;PMS_P1;PMS_P2;Temp;Humidity;BMP_temperature;BMP_pressure;BME280_temperature;BME280_humidity;BME280_pressure;Samples;Min_cycle;Max_cycle;Signal;HPM_P1;HPM_P2
2023/12/13 00:00:40;;;;;;;;;;;8.10;99.90;;;;;;5024029;28;19921;-75
2023/12/13 00:03:27;;;;;;;;;;;8.00;99.90;;;;;;5020625;28;19915;-74
2023/12/13 00:06:13;;;;;;;;;;;8.10;99.90;;;;;;5034385;28;20002;-74
2023/12/13 00:08:59;;;;;;;;;;;8.10;99.90;;;;;;5024322;28;19999;-74
2023/12/13 00:11:45;;;;;;;;;;;8.00;99.90;;;;;;5038669;28;20372;-74
2023/12/13 00:14:30;;;;;;;;;;;8.10;99.90;;;;;;5039284;28;19943;-74
2023/12/13 00:17:18;;;;;;;;;;;8.00;99.90;;;;;;5018822;28;19909;-74
2023/12/13 00:20:05;;;;;;;;;;;8.00;99.90;;;;;;5002081;28;19944;-74
2023/12/13 00:22:52;;;;;;;;;;;8.00;99.90;;;;;;5007937;28;20126;-74
2023/12/13 00:25:38;;;;;;;;;;;8.00;99.90;;;;;;5020414;28;19921;-74
2023/12/13 00:28:24;;;;;;;;;;;8.00;99.90;;;;;;5028875;28;19964;-74
2023/12/13 00:31:10;;;;;;;;;;;8.10;99.90;;;;;;5018146;28;19945;-74
2023/12/13 00:33:56;;;;;;;;;;;8.00;99.90;;;;;;5021258;28;20218;-74
2023/12/13 00:36:42;;;;;;;;;;;8.00;99.90;;;;;;5008863;28;20217;-74
2023/12/13 00:39:29;;;;;;;;;;;8.00;99.90;;;;;;5020166;28;19940;-74
2023/12/13 00:42:15;;;;;;;;;;;8.00;99.90;;;;;;5030680;28;19909;-74
2023/12/13 00:45:02;;;;;;;;;;;8.00;99.90;;;;;;5014241;28;19913;-74
2023/12/13 00:47:48;;;;;;;;;;;8.00;99.90;;;;;;5034466;28;20203;-74
2023/12/13 00:50:34;;;;;;;;;;;8.00;99.90;;;;;;4996932;28;19913;-74
2023/12/13 00:53:20;;;;;;;;;;;8.00;99.90;;;;;;5033689;28;19916;-74
2023/12/13 00:56:06;;;;;;;;;;;8.00;99.90;;;;;;5029673;28;19917;-74
2023/12/13 00:58:52;;;;;;;;;;;8.00;99.90;;;;;;5015581;28;19913;-74
2023/12/13 01:01:43;;;;;;;;;;;8.00;99.90;;;;;;5025412;28;19924;-74
2023/12/13 01:04:30;;;;;;;;;;;8.00;99.90;;;;;;5034550;28;19988;-74
2023/12/13 01:07:16;;;;;;;;;;;8.00;99.90;;;;;;5032326;28;19963;-74
2023/12/13 01:10:02;;;;;;;;;;;8.00;99.90;;;;;;5007642;28;19948;-74
2023/12/13 01:12:48;;;;;;;;;;;8.00;99.90;;;;;;5028514;28;20531;-74
2023/12/13 01:15:34;;;;;;;;;;;8.00;99.90;;;;;;5003099;28;20306;-74
2023/12/13 01:18:20;;;;;;;;;;;8.00;99.90;;;;;;5027235;28;19986;-74
2023/12/13 01:21:06;;;;;;;;;;;7.90;99.90;;;;;;5029998;28;19982;-74
2023/12/13 01:23:52;;;;;;;;;;;7.90;99.90;;;;;;5019637;28;20451;-74
2023/12/13 01:26:39;;;;;;;;;;;7.90;99.90;;;;;;5017561;28;19924;-74
2023/12/13 01:29:25;;;;;;;;;;;7.90;99.90;;;;;;5025167;28;19988;-74
2023/12/13 01:32:11;;;;;;;;;;;7.80;99.90;;;;;;5029149;28;19964;-74
2023/12/13 01:34:57;;;;;;;;;;;7.80;99.90;;;;;;5028966;28;19924;-74
2023/12/13 01:37:43;;;;;;;;;;;7.80;99.90;;;;;;5010254;28;19909;-74
2023/12/13 01:40:31;;;;;;;;;;;7.80;99.90;;;;;;5023761;28;19920;-74
2023/12/13 01:43:25;;;;;;;;;;;7.70;99.90;;;;;;5017802;28;19913;-75
2023/12/13 01:46:12;;;;;;;;;;;7.70;99.90;;;;;;5015290;28;19996;-74
2023/12/13 01:48:59;;;;;;;;;;;7.70;99.90;;;;;;5027770;28;19955;-74
2023/12/13 01:51:45;;;;;;;;;;;7.70;99.90;;;;;;5033614;28;20329;-74
2023/12/13 01:54:31;;;;;;;;;;;7.70;99.90;;;;;;5026163;28;20353;-74
2023/12/13 01:57:17;;;;;;;;;;;7.70;99.90;;;;;;5029051;28;20515;-74
2023/12/13 02:00:03;;;;;;;;;;;7.60;99.90;;;;;;4980973;28;1421685;-74
2023/12/13 02:02:49;;;;;;;;;;;7.70;99.90;;;;;;5025313;28;19924;-74
2023/12/13 02:05:35;;;;;;;;;;;7.60;99.90;;;;;;5032759;28;19940;-75
2023/12/13 02:08:22;;;;;;;;;;;7.60;99.90;;;;;;5025905;28;20090;-74
2023/12/13 02:11:08;;;;;;;;;;;7.60;99.90;;;;;;5034956;28;19928;-74
2023/12/13 02:13:54;;;;;;;;;;;7.60;99.90;;;;;;5000971;28;19913;-74
2023/12/13 02:16:40;;;;;;;;;;;7.60;99.90;;;;;;5041045;28;19951;-74
2023/12/13 02:19:26;;;;;;;;;;;7.60;99.90;;;;;;5031496;28;19909;-74
2023/12/13 02:22:12;;;;;;;;;;;7.60;99.90;;;;;;5032324;28;19909;-74
2023/12/13 02:24:59;;;;;;;;;;;7.60;99.90;;;;;;5029360;28;19924;-74
2023/12/13 02:27:48;;;;;;;;;;;7.60;99.90;;;;;;5021508;28;19991;-74
2023/12/13 02:30:35;;;;;;;;;;;7.50;99.90;;;;;;5026402;28;20535;-74
2023/12/13 02:33:26;;;;;;;;;;;7.60;99.90;;;;;;5024206;28;19917;-74
2023/12/13 02:36:12;;;;;;;;;;;7.50;99.90;;;;;;5030366;28;19971;-74
2023/12/13 02:38:58;;;;;;;;;;;7.50;99.90;;;;;;5026459;28;20255;-74
2023/12/13 02:41:44;;;;;;;;;;;7.50;99.90;;;;;;5018144;28;19921;-74
2023/12/13 02:44:29;;;;;;;;;;;7.50;99.90;;;;;;5011189;28;19913;-74
2023/12/13 02:47:15;;;;;;;;;;;7.50;99.90;;;;;;5026943;28;19920;-74
2023/12/13 02:50:01;;;;;;;;;;;7.50;99.90;;;;;;5021201;28;19913;-74
2023/12/13 02:52:47;;;;;;;;;;;7.50;99.90;;;;;;5018462;28;19920;-74
2023/12/13 02:55:33;;;;;;;;;;;7.50;99.90;;;;;;5027167;28;19909;-74
2023/12/13 02:58:21;;;;;;;;;;;7.40;99.90;;;;;;5004540;28;19952;-74
2023/12/13 03:01:08;;;;;;;;;;;7.40;99.90;;;;;;5019556;28;19921;-74
2023/12/13 03:03:54;;;;;;;;;;;7.40;99.90;;;;;;5027294;28;20019;-74
2023/12/13 03:06:40;;;;;;;;;;;7.40;99.90;;;;;;5020002;28;19913;-74
2023/12/13 03:09:26;;;;;;;;;;;7.40;99.90;;;;;;5027104;28;20226;-74
2023/12/13 03:12:12;;;;;;;;;;;7.40;99.90;;;;;;5010878;28;19912;-74
2023/12/13 03:15:01;;;;;;;;;;;7.40;99.90;;;;;;5018778;28;19909;-74
2023/12/13 03:17:48;;;;;;;;;;;7.40;99.90;;;;;;5019148;28;19913;-74
2023/12/13 03:20:34;;;;;;;;;;;7.40;99.90;;;;;;5032957;28;19917;-74
2023/12/13 03:23:20;;;;;;;;;;;7.40;99.90;;;;;;5019562;28;19932;-74
2023/12/13 03:26:06;;;;;;;;;;;7.50;99.90;;;;;;5005839;28;19945;-74
2023/12/13 03:28:51;;;;;;;;;;;7.40;99.90;;;;;;5025799;28;19999;-74
2023/12/13 03:31:37;;;;;;;;;;;7.50;99.90;;;;;;5020105;28;19909;-74
2023/12/13 03:34:24;;;;;;;;;;;7.50;99.90;;;;;;5020343;28;19923;-74
2023/12/13 03:37:10;;;;;;;;;;;7.50;99.90;;;;;;5006209;28;19909;-74
2023/12/13 03:39:56;;;;;;;;;;;7.50;99.90;;;;;;5013056;28;20380;-74
2023/12/13 03:42:43;;;;;;;;;;;7.50;99.90;;;;;;5035233;28;19912;-74
2023/12/13 03:45:29;;;;;;;;;;;7.50;99.90;;;;;;5010534;28;19924;-74
2023/12/13 03:48:15;;;;;;;;;;;7.50;99.90;;;;;;5030822;28;19920;-74
2023/12/13 03:51:05;;;;;;;;;;;7.50;99.90;;;;;;5024702;28;20325;-74
2023/12/13 03:53:51;;;;;;;;;;;7.50;99.90;;;;;;5035742;28;20430;-74
2023/12/13 03:56:37;;;;;;;;;;;7.40;99.90;;;;;;5032160;28;20246;-74
2023/12/13 03:59:22;;;;;;;;;;;7.40;99.90;;;;;;5031852;28;20332;-74
2023/12/13 04:02:08;;;;;;;;;;;7.40;99.90;;;;;;5033546;28;19971;-74
2023/12/13 04:04:54;;;;;;;;;;;7.50;99.90;;;;;;5031011;28;20051;-74
2023/12/13 04:07:40;;;;;;;;;;;7.40;99.90;;;;;;5030794;28;19975;-74
2023/12/13 04:10:26;;;;;;;;;;;7.40;99.90;;;;;;5027428;28;19967;-74
2023/12/13 04:13:12;;;;;;;;;;;7.50;99.90;;;;;;5012917;28;19913;-74
2023/12/13 04:15:58;;;;;;;;;;;7.50;99.90;;;;;;5015166;28;19913;-74
2023/12/13 04:18:45;;;;;;;;;;;7.50;99.90;;;;;;5019083;28;20207;-74
2023/12/13 04:21:31;;;;;;;;;;;7.50;99.90;;;;;;5022541;28;19925;-74
2023/12/13 04:24:17;;;;;;;;;;;7.40;99.90;;;;;;5030318;28;19909;-74
2023/12/13 04:27:03;;;;;;;;;;;7.40;99.90;;;;;;5022792;28;19909;-74
2023/12/13 04:29:49;;;;;;;;;;;7.40;99.90;;;;;;5029733;28;19909;-74
2023/12/13 04:32:35;;;;;;;;;;;7.40;99.90;;;;;;5020470;28;19992;-74
2023/12/13 04:35:21;;;;;;;;;;;7.40;99.90;;;;;;5020797;28;19910;-74
2023/12/13 04:38:08;;;;;;;;;;;7.50;99.90;;;;;;5034162;28;19916;-74
2023/12/13 04:40:54;;;;;;;;;;;7.40;99.90;;;;;;5026753;28;20508;-74
2023/12/13 04:43:40;;;;;;;;;;;7.40;99.90;;;;;;5024492;28;19913;-74
2023/12/13 04:46:26;;;;;;;;;;;7.40;99.90;;;;;;5018621;28;19921;-74
2023/12/13 04:49:12;;;;;;;;;;;7.40;99.90;;;;;;5033212;28;20003;-74
2023/12/13 04:51:58;;;;;;;;;;;7.50;99.90;;;;;;5029643;28;19986;-74
2023/12/13 04:54:43;;;;;;;;;;;7.40;99.90;;;;;;5012437;28;19967;-74
2023/12/13 04:57:29;;;;;;;;;;;7.40;99.90;;;;;;5008394;28;20000;-75
2023/12/13 05:00:15;;;;;;;;;;;7.50;99.90;;;;;;5032075;28;19978;-74
2023/12/13 05:03:01;;;;;;;;;;;7.50;99.90;;;;;;5031938;28;19979;-74
2023/12/13 05:05:47;;;;;;;;;;;7.40;99.90;;;;;;5020616;28;19913;-74
2023/12/13 05:08:33;;;;;;;;;;;7.50;99.90;;;;;;5031460;28;19909;-74
2023/12/13 05:11:19;;;;;;;;;;;7.50;99.90;;;;;;5038304;28;20227;-74
2023/12/13 05:14:05;;;;;;;;;;;7.40;99.90;;;;;;5041133;28;20020;-74
2023/12/13 05:16:51;;;;;;;;;;;7.50;99.90;;;;;;5024086;28;19920;-74
2023/12/13 05:19:37;;;;;;;;;;;7.40;99.90;;;;;;5020585;28;19917;-74
2023/12/13 05:22:23;;;;;;;;;;;7.40;99.90;;;;;;5036980;28;19920;-74
2023/12/13 05:25:09;;;;;;;;;;;7.40;99.90;;;;;;5022022;28;20349;-74
2023/12/13 05:27:55;;;;;;;;;;;7.40;99.90;;;;;;5020282;28;19916;-74
2023/12/13 05:30:41;;;;;;;;;;;7.40;99.90;;;;;;5022497;28;20313;-74
2023/12/13 05:33:27;;;;;;;;;;;7.40;99.90;;;;;;5020972;28;19920;-74
2023/12/13 05:36:13;;;;;;;;;;;7.40;99.90;;;;;;5032518;28;19967;-74
2023/12/13 05:38:59;;;;;;;;;;;7.30;99.90;;;;;;5028600;28;20217;-74
2023/12/13 05:41:45;;;;;;;;;;;7.30;99.90;;;;;;5010869;28;19909;-74
2023/12/13 05:44:31;;;;;;;;;;;7.40;99.90;;;;;;5003331;28;19909;-74
2023/12/13 05:47:17;;;;;;;;;;;7.30;99.90;;;;;;5020302;28;19913;-74
2023/12/13 05:50:04;;;;;;;;;;;7.30;99.90;;;;;;5026462;28;20322;-74
2023/12/13 05:52:50;;;;;;;;;;;7.30;99.90;;;;;;5042902;28;20009;-74
2023/12/13 05:55:36;;;;;;;;;;;7.40;99.90;;;;;;5020080;28;19912;-74
2023/12/13 05:58:22;;;;;;;;;;;7.40;99.90;;;;;;5021763;28;19924;-74
2023/12/13 06:01:08;;;;;;;;;;;7.40;99.90;;;;;;5034280;28;19921;-74
2023/12/13 06:03:54;;;;;;;;;;;7.40;99.90;;;;;;5022184;28;20254;-74
2023/12/13 06:06:44;;;;;;;;;;;7.40;99.90;;;;;;5018818;28;19920;-75
2023/12/13 06:09:31;;;;;;;;;;;7.40;99.90;;;;;;5019411;28;20258;-74
2023/12/13 06:12:17;;;;;;;;;;;7.40;99.90;;;;;;5018282;28;20598;-74
2023/12/13 06:15:03;;;;;;;;;;;7.40;99.90;;;;;;5030702;28;19940;-74
2023/12/13 06:17:49;;;;;;;;;;;7.40;99.90;;;;;;5021488;28;19916;-74
2023/12/13 06:20:35;;;;;;;;;;;7.40;99.90;;;;;;4996487;28;19974;-74
2023/12/13 06:23:23;;;;;;;;;;;7.50;99.90;;;;;;5026815;28;19913;-74
2023/12/13 06:26:09;;;;;;;;;;;7.50;99.90;;;;;;5030891;28;19942;-74
2023/12/13 06:28:55;;;;;;;;;;;7.50;99.90;;;;;;5016792;28;19948;-74
2023/12/13 06:31:41;;;;;;;;;;;7.50;99.90;;;;;;5011356;28;19992;-73
2023/12/13 06:34:27;;;;;;;;;;;7.50;99.90;;;;;;5003327;28;19917;-74
2023/12/13 06:37:12;;;;;;;;;;;7.50;99.90;;;;;;4997515;28;20314;-74
2023/12/13 06:39:59;;;;;;;;;;;7.60;99.90;;;;;;5033852;28;19909;-75
2023/12/13 06:42:46;;;;;;;;;;;7.60;99.90;;;;;;5032396;28;19908;-73
2023/12/13 06:45:32;;;;;;;;;;;7.60;99.90;;;;;;5031869;28;19921;-73
2023/12/13 06:48:18;;;;;;;;;;;7.60;99.90;;;;;;5036716;28;19913;-75
2023/12/13 06:51:04;;;;;;;;;;;7.60;99.90;;;;;;5033365;28;19947;-74
2023/12/13 06:53:50;;;;;;;;;;;7.60;99.90;;;;;;5020144;28;19919;-74
2023/12/13 06:56:36;;;;;;;;;;;7.60;99.90;;;;;;5019512;28;19996;-74
2023/12/13 06:59:22;;;;;;;;;;;7.60;99.90;;;;;;5013419;28;19936;-74
2023/12/13 07:02:11;;;;;;;;;;;7.60;99.90;;;;;;5030233;28;19909;-74
2023/12/13 07:04:57;;;;;;;;;;;7.60;99.90;;;;;;5023376;28;19936;-74
2023/12/13 07:07:43;;;;;;;;;;;7.70;99.90;;;;;;5040192;28;19909;-74
2023/12/13 07:10:30;;;;;;;;;;;7.70;99.90;;;;;;5036748;28;19949;-74
2023/12/13 07:13:16;;;;;;;;;;;7.70;99.90;;;;;;5023471;28;20318;-73
2023/12/13 07:16:03;;;;;;;;;;;7.70;99.90;;;;;;5013100;28;19971;-74
2023/12/13 07:18:49;;;;;;;;;;;7.70;99.90;;;;;;5018220;28;19913;-74
2023/12/13 07:21:37;;;;;;;;;;;7.70;99.90;;;;;;5031147;28;20245;-73
2023/12/13 07:24:23;;;;;;;;;;;7.70;99.90;;;;;;5026063;28;20379;-73
2023/12/13 07:27:09;;;;;;;;;;;7.70;99.90;;;;;;5030268;28;19913;-73
2023/12/13 07:29:55;;;;;;;;;;;7.70;99.90;;;;;;4989457;28;19910;-73
2023/12/13 07:32:41;;;;;;;;;;;7.70;99.90;;;;;;5018642;28;19921;-73
2023/12/13 07:35:28;;;;;;;;;;;7.70;99.90;;;;;;5021663;28;19909;-73
2023/12/13 07:38:16;;;;;;;;;;;7.70;99.90;;;;;;5008337;28;19909;-73
2023/12/13 07:41:02;;;;;;;;;;;7.70;99.90;;;;;;5029623;28;19919;-73
2023/12/13 07:43:52;;;;;;;;;;;7.80;99.90;;;;;;5014105;28;19913;-73
2023/12/13 07:46:41;;;;;;;;;;;7.70;99.90;;;;;;5010339;28;19921;-74
2023/12/13 07:49:27;;;;;;;;;;;7.70;99.90;;;;;;5027343;28;19913;-74
2023/12/13 07:52:13;;;;;;;;;;;7.80;99.90;;;;;;5034810;28;20294;-74
2023/12/13 07:54:59;;;;;;;;;;;7.80;99.90;;;;;;5005122;28;19909;-74
2023/12/13 07:57:45;;;;;;;;;;;7.80;99.90;;;;;;5023895;28;19913;-74
2023/12/13 08:00:31;;;;;;;;;;;7.80;99.90;;;;;;5019970;28;19925;-74
2023/12/13 08:03:16;;;;;;;;;;;7.90;99.90;;;;;;5017603;28;19913;-74
2023/12/13 08:06:08;;;;;;;;;;;7.80;99.90;;;;;;5017705;28;20380;-74
2023/12/13 08:08:54;;;;;;;;;;;7.90;99.90;;;;;;5018853;28;19935;-74
2023/12/13 08:11:40;;;;;;;;;;;7.80;99.90;;;;;;5021851;28;19909;-74
2023/12/13 08:14:30;;;;;;;;;;;7.80;99.90;;;;;;5037322;28;20151;-74
2023/12/13 08:17:17;;;;;;;;;;;7.80;99.90;;;;;;5018898;28;19991;-74
2023/12/13 08:20:04;;;;;;;;;;;7.80;99.90;;;;;;5020417;28;20584;-74
2023/12/13 08:22:50;;;;;;;;;;;7.80;99.90;;;;;;5032341;28;19963;-74
2023/12/13 08:25:36;;;;;;;;;;;7.80;99.90;;;;;;5009722;28;20004;-74
2023/12/13 08:28:23;;;;;;;;;;;7.80;99.90;;;;;;5037679;28;20603;-74
2023/12/13 08:31:11;;;;;;;;;;;7.80;99.90;;;;;;5027102;28;19919;-74
2023/12/13 08:33:57;;;;;;;;;;;7.90;99.90;;;;;;5029894;28;20001;-74
2023/12/13 08:36:44;;;;;;;;;;;7.90;99.90;;;;;;5006693;28;19913;-73
2023/12/13 08:39:32;;;;;;;;;;;7.90;99.90;;;;;;5013079;28;20318;-73
2023/12/13 08:42:19;;;;;;;;;;;7.90;99.90;;;;;;5033085;28;19913;-74
2023/12/13 08:45:05;;;;;;;;;;;7.90;99.90;;;;;;5026484;28;19921;-73
2023/12/13 08:47:51;;;;;;;;;;;7.90;99.90;;;;;;5022868;28;19909;-74
2023/12/13 08:50:38;;;;;;;;;;;8.00;99.90;;;;;;5026832;28;19955;-74
2023/12/13 08:53:24;;;;;;;;;;;7.90;99.90;;;;;;5023539;28;19913;-74
2023/12/13 08:56:10;;;;;;;;;;;7.90;99.90;;;;;;5026791;28;19980;-74
2023/12/13 08:58:56;;;;;;;;;;;7.90;99.90;;;;;;5012652;28;20218;-74
2023/12/13 09:01:42;;;;;;;;;;;8.00;99.90;;;;;;5010299;28;19926;-74
2023/12/13 09:04:28;;;;;;;;;;;7.90;99.90;;;;;;5009907;28;19920;-74
2023/12/13 09:07:14;;;;;;;;;;;8.00;99.90;;;;;;5022118;28;19971;-75
2023/12/13 09:10:03;;;;;;;;;;;8.00;99.90;;;;;;5012636;28;20596;-75
2023/12/13 09:12:50;;;;;;;;;;;8.00;99.90;;;;;;5021136;28;19961;-75
2023/12/13 09:15:36;;;;;;;;;;;8.00;99.90;;;;;;4999887;28;19999;-76
2023/12/13 09:18:22;;;;;;;;;;;8.00;99.90;;;;;;5000450;28;20234;-76
2023/12/13 09:21:08;;;;;;;;;;;8.10;99.90;;;;;;5012572;28;19909;-75
2023/12/13 09:23:55;;;;;;;;;;;8.00;99.90;;;;;;5011632;28;20314;-75
2023/12/13 09:26:40;;;;;;;;;;;8.00;99.90;;;;;;5013081;28;19956;-75
2023/12/13 09:29:26;;;;;;;;;;;8.10;99.90;;;;;;5016754;28;20318;-75
2023/12/13 09:32:13;;;;;;;;;;;8.10;99.90;;;;;;5015820;28;19913;-76
2023/12/13 09:34:59;;;;;;;;;;;8.10;99.90;;;;;;5015446;28;19913;-76
2023/12/13 09:37:46;;;;;;;;;;;8.10;99.90;;;;;;4995131;28;19941;-76
2023/12/13 09:40:32;;;;;;;;;;;8.10;99.90;;;;;;4996010;28;19956;-76
2023/12/13 09:43:19;;;;;;;;;;;8.10;99.90;;;;;;5013185;28;19992;-76
2023/12/13 09:46:07;;;;;;;;;;;8.20;99.90;;;;;;5007003;28;19917;-76
2023/12/13 09:48:54;;;;;;;;;;;8.20;99.90;;;;;;5008751;28;19917;-75
2023/12/13 09:51:40;;;;;;;;;;;8.20;99.90;;;;;;4994722;28;19960;-75
2023/12/13 09:54:26;;;;;;;;;;;8.20;99.90;;;;;;5013025;28;19917;-75
2023/12/13 09:57:12;;;;;;;;;;;8.20;99.90;;;;;;5010767;28;19913;-75
2023/12/13 09:59:58;;;;;;;;;;;8.30;99.90;;;;;;5026749;28;20322;-76
2023/12/13 10:02:44;;;;;;;;;;;8.30;99.90;;;;;;5015995;28;19924;-75
2023/12/13 10:05:30;;;;;;;;;;;8.30;99.90;;;;;;5008889;28;19910;-76
2023/12/13 10:08:16;;;;;;;;;;;8.40;99.90;;;;;;5014942;28;19910;-76
2023/12/13 10:11:02;;;;;;;;;;;8.40;99.90;;;;;;5012795;28;19941;-76
2023/12/13 10:13:49;;;;;;;;;;;8.40;99.90;;;;;;5015378;28;19984;-76
2023/12/13 10:16:38;;;;;;;;;;;8.40;99.90;;;;;;5013655;28;20298;-76
2023/12/13 10:19:25;;;;;;;;;;;8.40;99.90;;;;;;5013994;28;19909;-76
2023/12/13 10:22:11;;;;;;;;;;;8.50;99.90;;;;;;5029149;28;20215;-75
2023/12/13 10:24:57;;;;;;;;;;;8.50;99.90;;;;;;5014928;28;19917;-76
2023/12/13 10:27:43;;;;;;;;;;;8.60;99.90;;;;;;5027327;28;20379;-76
2023/12/13 10:30:29;;;;;;;;;;;8.70;99.90;;;;;;5013487;28;20349;-75
2023/12/13 10:33:15;;;;;;;;;;;8.80;99.90;;;;;;5017594;28;20661;-75
2023/12/13 10:36:01;;;;;;;;;;;8.80;99.90;;;;;;5015215;28;19947;-76
2023/12/13 10:38:47;;;;;;;;;;;8.90;99.90;;;;;;5013673;28;19913;-76
2023/12/13 10:41:36;;;;;;;;;;;9.00;99.90;;;;;;5014576;28;19909;-76
2023/12/13 10:44:22;;;;;;;;;;;9.00;99.90;;;;;;5017948;28;19917;-75
2023/12/13 10:47:08;;;;;;;;;;;9.00;99.90;;;;;;5009164;28;20239;-75
2023/12/13 10:49:55;;;;;;;;;;;9.00;99.90;;;;;;4998824;28;19929;-76
2023/12/13 10:52:42;;;;;;;;;;;9.00;99.90;;;;;;5017846;28;20269;-75
2023/12/13 10:55:28;;;;;;;;;;;9.00;99.90;;;;;;5025914;28;19918;-76
2023/12/13 10:58:16;;;;;;;;;;;8.90;99.90;;;;;;4999225;28;19996;-76
2023/12/13 11:01:02;;;;;;;;;;;8.90;99.90;;;;;;5011825;28;19991;-75
2023/12/13 11:03:56;;;;;;;;;;;9.00;99.90;;;;;;5005434;28;19941;-75
2023/12/13 11:06:45;;;;;;;;;;;9.00;99.90;;;;;;5016365;28;19917;-75
2023/12/13 11:09:32;;;;;;;;;;;9.00;99.90;;;;;;5014891;28;19921;-75
2023/12/13 11:12:21;;;;;;;;;;;9.00;99.90;;;;;;5017821;28;19924;-75
2023/12/13 11:15:09;;;;;;;;;;;9.00;99.90;;;;;;5029152;28;20001;-76
2023/12/13 11:17:55;;;;;;;;;;;9.00;99.90;;;;;;5015522;28;19913;-75
2023/12/13 11:20:47;;;;;;;;;;;9.10;99.90;;;;;;5002243;28;19910;-75
2023/12/13 11:23:33;;;;;;;;;;;9.10;99.90;;;;;;5028241;28;19913;-76
2023/12/13 11:26:19;;;;;;;;;;;9.10;99.90;;;;;;5009350;28;19920;-76
2023/12/13 11:29:12;;;;;;;;;;;9.20;99.90;;;;;;5027957;28;19964;-76
2023/12/13 11:32:02;;;;;;;;;;;9.20;99.90;;;;;;5017439;28;19909;-75
2023/12/13 11:34:49;;;;;;;;;;;9.20;99.90;;;;;;5026168;28;19949;-75
2023/12/13 11:37:36;;;;;;;;;;;9.30;99.90;;;;;;5024051;28;19953;-76
2023/12/13 11:40:22;;;;;;;;;;;9.30;99.90;;;;;;5026032;28;19921;-76
2023/12/13 11:43:08;;;;;;;;;;;9.40;99.90;;;;;;5004058;28;19976;-75
2023/12/13 11:45:54;;;;;;;;;;;9.60;99.90;;;;;;5015934;28;20314;-75
2023/12/13 11:48:39;;;;;;;;;;;10.10;99.90;;;;;;5010928;28;20246;-75
2023/12/13 11:51:25;;;;;;;;;;;10.30;99.90;;;;;;5027314;28;19913;-76
2023/12/13 11:54:11;;;;;;;;;;;10.30;99.90;;;;;;5030834;28;20618;-75
2023/12/13 11:56:57;;;;;;;;;;;10.30;99.90;;;;;;5016382;28;19909;-76
2023/12/13 11:59:43;;;;;;;;;;;10.40;99.90;;;;;;5022899;28;19974;-75
2023/12/13 12:02:29;;;;;;;;;;;10.30;99.90;;;;;;4999449;28;19910;-75
2023/12/13 12:05:15;;;;;;;;;;;10.30;99.90;;;;;;5015577;28;19910;-75
2023/12/13 12:08:07;;;;;;;;;;;10.20;99.90;;;;;;5021367;28;20165;-75
2023/12/13 12:10:53;;;;;;;;;;;10.20;99.90;;;;;;5016459;28;19968;-76
2023/12/13 12:13:40;;;;;;;;;;;10.20;99.90;;;;;;5016638;28;19913;-75
2023/12/13 12:16:26;;;;;;;;;;;10.10;99.90;;;;;;5003725;28;19948;-75
2023/12/13 12:19:12;;;;;;;;;;;10.10;99.90;;;;;;5004078;28;19966;-76
2023/12/13 12:22:01;;;;;;;;;;;10.00;99.90;;;;;;5008889;28;19910;-76
2023/12/13 12:24:49;;;;;;;;;;;9.90;99.90;;;;;;4983081;28;19993;-76
2023/12/13 12:27:36;;;;;;;;;;;9.90;99.90;;;;;;5004040;28;19913;-76
2023/12/13 12:30:25;;;;;;;;;;;9.80;99.90;;;;;;5001520;28;19916;-76
2023/12/13 12:33:13;;;;;;;;;;;9.80;99.90;;;;;;4987535;28;19914;-76
2023/12/13 12:35:59;;;;;;;;;;;9.80;99.90;;;;;;4987377;28;19909;-76
2023/12/13 12:38:47;;;;;;;;;;;9.70;99.90;;;;;;5003984;28;19909;-76
2023/12/13 12:41:34;;;;;;;;;;;9.70;99.90;;;;;;5023782;28;19916;-76
2023/12/13 12:44:20;;;;;;;;;;;9.70;99.90;;;;;;5008116;28;20357;-75
2023/12/13 12:47:06;;;;;;;;;;;9.70;99.90;;;;;;4988939;28;20323;-75
2023/12/13 12:49:52;;;;;;;;;;;9.70;99.90;;;;;;4992403;28;19924;-76
2023/12/13 12:52:38;;;;;;;;;;;9.60;99.90;;;;;;5005491;28;19913;-75
2023/12/13 12:55:25;;;;;;;;;;;9.60;99.90;;;;;;5004269;28;20303;-75
2023/12/13 12:58:11;;;;;;;;;;;9.60;99.90;;;;;;4990323;28;19996;-75
2023/12/13 13:00:58;;;;;;;;;;;9.60;99.90;;;;;;5010228;28;19930;-75
2023/12/13 13:03:45;;;;;;;;;;;9.50;99.90;;;;;;5000704;28;19923;-75
2023/12/13 13:06:32;;;;;;;;;;;9.50;99.90;;;;;;5014365;28;19909;-75
2023/12/13 13:09:18;;;;;;;;;;;9.50;99.90;;;;;;5028389;28;20000;-75
2023/12/13 13:12:05;;;;;;;;;;;9.50;99.90;;;;;;5007778;28;19909;-75
2023/12/13 13:14:51;;;;;;;;;;;9.50;99.90;;;;;;5014954;28;19922;-75
2023/12/13 13:17:37;;;;;;;;;;;9.50;99.90;;;;;;5002057;28;20381;-75
2023/12/13 13:20:23;;;;;;;;;;;9.50;99.90;;;;;;5026647;28;19928;-75
2023/12/13 13:23:08;;;;;;;;;;;9.40;99.90;;;;;;4997875;28;19920;-76
2023/12/13 13:25:54;;;;;;;;;;;9.30;99.90;;;;;;5002615;28;20368;-76
2023/12/13 13:28:41;;;;;;;;;;;9.30;99.90;;;;;;5014526;28;20044;-76
2023/12/13 13:31:27;;;;;;;;;;;9.30;99.90;;;;;;5014973;28;19924;-76
2023/12/13 13:34:12;;;;;;;;;;;9.30;99.90;;;;;;5027393;28;19917;-76
2023/12/13 13:36:58;;;;;;;;;;;9.30;99.90;;;;;;5014683;28;19957;-76
2023/12/13 13:39:44;;;;;;;;;;;9.20;99.90;;;;;;5026864;28;19909;-75
2023/12/13 13:42:30;;;;;;;;;;;9.20;99.90;;;;;;5027961;28;20322;-76
2023/12/13 13:45:16;;;;;;;;;;;9.20;99.90;;;;;;5013536;28;19914;-76
2023/12/13 13:48:02;;;;;;;;;;;9.20;99.90;;;;;;5011266;28;19913;-75
2023/12/13 13:50:49;;;;;;;;;;;9.10;99.90;;;;;;5015915;28;19909;-75
2023/12/13 13:53:35;;;;;;;;;;;9.20;99.90;;;;;;5011418;28;19917;-75
2023/12/13 13:56:20;;;;;;;;;;;9.20;99.90;;;;;;5003901;28;19917;-75
2023/12/13 13:59:07;;;;;;;;;;;9.10;99.90;;;;;;5020808;28;19932;-75
2023/12/13 14:01:54;;;;;;;;;;;9.10;99.90;;;;;;5021559;28;19924;-77
2023/12/13 14:04:39;;;;;;;;;;;9.10;99.90;;;;;;5018887;28;20308;-77
2023/12/13 14:07:25;;;;;;;;;;;9.20;99.90;;;;;;5022189;28;20215;-77
2023/12/13 14:10:11;;;;;;;;;;;9.10;99.90;;;;;;5003605;28;19913;-77
2023/12/13 14:12:57;;;;;;;;;;;9.10;99.90;;;;;;5003761;28;19914;-77
2023/12/13 14:15:43;;;;;;;;;;;9.10;99.90;;;;;;5001393;28;20007;-77
2023/12/13 14:18:29;;;;;;;;;;;9.10;99.90;;;;;;5015862;28;19909;-77
2023/12/13 14:21:15;;;;;;;;;;;9.10;99.90;;;;;;5034861;28;19920;-77
2023/12/13 14:24:01;;;;;;;;;;;9.10;99.90;;;;;;5049749;28;19909;-77
2023/12/13 14:26:47;;;;;;;;;;;9.10;99.90;;;;;;5034775;28;19909;-77
2023/12/13 14:29:33;;;;;;;;;;;9.10;99.90;;;;;;5020997;28;20318;-77
2023/12/13 14:32:19;;;;;;;;;;;9.10;99.90;;;;;;5020108;28;19913;-77
2023/12/13 14:35:06;;;;;;;;;;;9.10;99.90;;;;;;5021207;28;19989;-77
2023/12/13 14:37:53;;;;;;;;;;;9.10;99.90;;;;;;5020698;28;19921;-77
2023/12/13 14:40:38;;;;;;;;;;;9.10;99.90;;;;;;5034966;28;20291;-76
2023/12/13 14:43:24;;;;;;;;;;;9.00;99.90;;;;;;5024523;28;19916;-76
2023/12/13 14:46:11;;;;;;;;;;;9.00;99.90;;;;;;5001556;28;19910;-76
2023/12/13 14:48:57;;;;;;;;;;;9.00;99.90;;;;;;4991950;28;19991;-77
2023/12/13 14:51:45;;;;;;;;;;;9.00;99.90;;;;;;5033607;28;19912;-76
2023/12/13 14:54:31;;;;;;;;;;;9.10;99.90;;;;;;5021648;28;20310;-76
2023/12/13 14:57:18;;;;;;;;;;;9.00;99.90;;;;;;5033764;28;20338;-76
2023/12/13 15:00:08;;;;;;;;;;;9.00;99.90;;;;;;5034337;28;19978;-77
2023/12/13 15:02:56;;;;;;;;;;;9.00;99.90;;;;;;5021354;28;20322;-77
2023/12/13 15:05:44;;;;;;;;;;;9.00;99.90;;;;;;5020087;28;20241;-76
2023/12/13 15:08:30;;;;;;;;;;;9.00;99.90;;;;;;5020594;28;19927;-77
2023/12/13 15:11:16;;;;;;;;;;;9.00;99.90;;;;;;5034203;28;19944;-76
2023/12/13 15:14:04;;;;;;;;;;;8.90;99.90;;;;;;5018644;28;19917;-76
2023/12/13 15:16:52;;;;;;;;;;;9.00;99.90;;;;;;5021052;28;19909;-77
2023/12/13 15:19:39;;;;;;;;;;;8.90;99.90;;;;;;5020785;28;20230;-76
2023/12/13 15:22:24;;;;;;;;;;;8.90;99.90;;;;;;5032728;28;20202;-76
2023/12/13 15:25:10;;;;;;;;;;;8.90;99.90;;;;;;5020972;28;20014;-76
2023/12/13 15:27:56;;;;;;;;;;;8.90;99.90;;;;;;5014516;28;19920;-76
2023/12/13 15:30:42;;;;;;;;;;;8.80;99.90;;;;;;5005564;28;20481;-76
2023/12/13 15:33:33;;;;;;;;;;;8.80;99.90;;;;;;5023052;28;20498;-77
2023/12/13 15:36:19;;;;;;;;;;;8.80;99.90;;;;;;5021571;28;19909;-78
2023/12/13 15:39:05;;;;;;;;;;;8.70;99.90;;;;;;5021290;28;19920;-78
2023/12/13 15:41:51;;;;;;;;;;;8.70;99.90;;;;;;5022825;28;19909;-78
2023/12/13 15:44:37;;;;;;;;;;;8.70;99.90;;;;;;5025111;28;19928;-77
2023/12/13 15:47:23;;;;;;;;;;;8.70;99.90;;;;;;5037104;28;19927;-77
2023/12/13 15:50:09;;;;;;;;;;;8.70;99.90;;;;;;5036180;28;19909;-76
2023/12/13 15:52:55;;;;;;;;;;;8.70;99.90;;;;;;5034078;28;19916;-76
2023/12/13 15:55:41;;;;;;;;;;;8.60;99.90;;;;;;5022796;28;19983;-77
2023/12/13 15:58:27;;;;;;;;;;;8.60;99.90;;;;;;5027380;28;19909;-77
2023/12/13 16:01:13;;;;;;;;;;;8.60;99.90;;;;;;5020998;28;19921;-77
2023/12/13 16:03:59;;;;;;;;;;;8.60;99.90;;;;;;5028219;28;20666;-77
2023/12/13 16:06:45;;;;;;;;;;;8.60;99.90;;;;;;5018478;28;19909;-76
2023/12/13 16:09:33;;;;;;;;;;;8.60;99.90;;;;;;5005354;28;19909;-77
2023/12/13 16:12:21;;;;;;;;;;;8.50;99.90;;;;;;5017538;28;19991;-77
2023/12/13 16:15:07;;;;;;;;;;;8.50;99.90;;;;;;5019122;28;19910;-77
2023/12/13 16:17:53;;;;;;;;;;;8.50;99.90;;;;;;5031350;28;20406;-77
2023/12/13 16:20:39;;;;;;;;;;;8.50;99.90;;;;;;5023793;28;19924;-76